Time;durP1;ratioP1;P1;durP2;ratioP2;P2;SDS_P1;SDS_P2;PMS_P1;PMS_P2;Temp;Humidity;BMP_temperature;BMP_pressure;BME280_temperature;BME280_humidity;BME280_pressure;Samples;Min_cycle;Max_cycle;Signal;HPM_P1;HPM_P2
2023/09/14 00:00:26;;;;;;;13.05;8.50;;;16.70;99.90;;;;;;7606722;19;20509;-72
2023/09/14 00:03:00;;;;;;;11.95;7.82;;;16.80;99.90;;;;;;7567953;19;20017;-77
2023/09/14 00:05:37;;;;;;;9.82;7.57;;;16.70;99.90;;;;;;7599115;19;20014;-76
2023/09/14 00:08:12;;;;;;;15.60;9.02;;;16.70;99.90;;;;;;7599279;19;22971;-76
2023/09/14 00:10:44;;;;;;;16.55;9.45;;;16.70;99.90;;;;;;7607183;19;20044;-76
2023/09/14 00:13:16;;;;;;;12.88;9.30;;;16.70;99.90;;;;;;7601547;19;20031;-76
2023/09/14 00:15:48;;;;;;;11.95;8.02;;;16.60;99.90;;;;;;7603400;19;20045;-76
2023/09/14 00:18:21;;;;;;;16.65;9.77;;;16.70;99.90;;;;;;7589478;19;20061;-76
2023/09/14 00:20:56;;;;;;;16.87;9.13;;;16.60;99.90;;;;;;7584379;19;21319;-76
2023/09/14 00:23:28;;;;;;;13.52;9.18;;;16.70;99.90;;;;;;7611420;19;20022;-76
2023/09/14 00:26:00;;;;;;;18.05;10.48;;;16.70;99.90;;;;;;7609411;19;20017;-76
2023/09/14 00:28:32;;;;;;;18.33;10.57;;;16.70;99.90;;;;;;7607848;19;20442;-76
2023/09/14 00:31:05;;;;;;;18.17;10.10;;;16.80;99.90;;;;;;7603366;19;20026;-76
2023/09/14 00:33:37;;;;;;;13.32;9.65;;;16.70;99.90;;;;;;7609780;19;20452;-76
2023/09/14 00:36:09;;;;;;;11.35;8.25;;;16.70;99.90;;;;;;7586054;19;20006;-76
2023/09/14 00:38:41;;;;;;;15.30;9.88;;;16.70;99.90;;;;;;7597999;19;20011;-76
2023/09/14 00:41:14;;;;;;;14.57;9.60;;;16.70;99.90;;;;;;7602718;19;20022;-76
2023/09/14 00:43:46;;;;;;;22.20;12.15;;;16.70;99.90;;;;;;7597994;19;20025;-76
2023/09/14 00:46:19;;;;;;;13.70;8.45;;;16.70;99.90;;;;;;7592782;19;20082;-76
2023/09/14 00:48:51;;;;;;;11.02;8.15;;;16.70;99.90;;;;;;7598737;19;20033;-76
2023/09/14 00:51:27;;;;;;;15.32;10.15;;;16.80;99.90;;;;;;7600728;19;20015;-76
2023/09/14 00:54:00;;;;;;;16.02;10.60;;;16.70;99.90;;;;;;7592992;19;20022;-76
2023/09/14 00:56:32;;;;;;;16.77;10.35;;;16.70;99.90;;;;;;7597694;19;20018;-76
2023/09/14 00:59:07;;;;;;;13.32;9.15;;;16.70;99.90;;;;;;7598620;19;20022;-76
2023/09/14 01:01:39;;;;;;;13.88;9.80;;;16.70;99.90;;;;;;7587686;19;20036;-77
2023/09/14 01:04:11;;;;;;;24.25;12.73;;;16.60;99.90;;;;;;7597984;19;20031;-76
2023/09/14 01:06:45;;;;;;;23.73;12.23;;;16.60;99.90;;;;;;7600865;19;20705;-76
2023/09/14 01:09:17;;;;;;;16.52;9.55;;;16.60;99.90;;;;;;7588336;19;20126;-76
2023/09/14 01:11:50;;;;;;;13.20;9.23;;;16.60;99.90;;;;;;7588175;19;20053;-76
2023/09/14 01:14:31;;;;;;;19.02;11.90;;;16.60;99.90;;;;;;7581350;19;20014;-76
2023/09/14 01:17:12;;;;;;;17.08;10.88;;;16.60;99.90;;;;;;7574374;19;20023;-78
2023/09/14 01:20:01;;;;;;;10.88;8.20;;;16.70;99.90;;;;;;7581012;19;20014;-76
2023/09/14 01:22:47;;;;;;;24.30;11.75;;;16.60;99.90;;;;;;7607806;19;20415;-77
2023/09/14 01:25:48;;;;;;;18.35;10.63;;;16.60;99.90;;;;;;7605617;19;20936;-77
2023/09/14 01:28:21;;;;;;;16.33;10.63;;;16.60;99.90;;;;;;7589342;19;20035;-76
2023/09/14 01:30:53;;;;;;;18.63;10.60;;;16.50;99.90;;;;;;7593384;19;20443;-76
2023/09/14 01:33:27;;;;;;;25.90;14.25;;;16.60;99.90;;;;;;7587779;19;20037;-76
2023/09/14 01:36:25;;;;;;;21.45;13.13;;;16.60;99.90;;;;;;7602514;19;20018;-77
2023/09/14 01:38:59;;;;;;;19.23;12.38;;;16.60;99.90;;;;;;7572849;19;20044;-76
2023/09/14 01:41:34;;;;;;;20.05;12.32;;;16.50;99.90;;;;;;7559537;19;20043;-76
2023/09/14 01:44:07;;;;;;;19.15;10.80;;;16.50;99.90;;;;;;7581900;19;20037;-77
2023/09/14 01:46:40;;;;;;;15.77;10.35;;;16.50;99.90;;;;;;7561554;19;20013;-76
2023/09/14 01:49:13;;;;;;;27.92;12.95;;;16.50;99.90;;;;;;7579272;19;20078;-76
2023/09/14 01:51:46;;;;;;;27.08;14.45;;;16.50;99.90;;;;;;7594998;19;20392;-76
2023/09/14 01:54:18;;;;;;;25.23;14.65;;;16.50;99.90;;;;;;7587687;19;20011;-76
2023/09/14 01:56:50;;;;;;;16.05;12.00;;;16.50;99.90;;;;;;7593577;19;20009;-76
2023/09/14 01:59:22;;;;;;;24.25;13.75;;;16.50;99.90;;;;;;7595787;19;20075;-76
2023/09/14 02:01:55;;;;;;;22.70;13.15;;;16.40;99.90;;;;;;7589717;19;20014;-77
2023/09/14 02:04:27;;;;;;;26.65;14.70;;;16.50;99.90;;;;;;7583764;19;20026;-77
2023/09/14 02:06:59;;;;;;;23.77;14.23;;;16.50;99.90;;;;;;7605483;19;20010;-76
2023/09/14 02:09:31;;;;;;;22.27;13.88;;;16.50;99.90;;;;;;7583785;19;20035;-77
2023/09/14 02:12:03;;;;;;;28.98;15.35;;;16.50;99.90;;;;;;7593044;19;20018;-77
2023/09/14 02:14:36;;;;;;;34.88;17.15;;;16.40;99.90;;;;;;7581611;19;20017;-77
2023/09/14 02:17:08;;;;;;;21.95;14.27;;;16.50;99.90;;;;;;7578229;19;20647;-77
2023/09/14 02:19:40;;;;;;;26.75;13.35;;;16.40;99.90;;;;;;7586917;19;20022;-76
2023/09/14 02:22:13;;;;;;;20.20;12.85;;;16.50;99.90;;;;;;7592484;19;20011;-76
2023/09/14 02:24:47;;;;;;;26.70;15.03;;;16.60;99.90;;;;;;7595044;19;21025;-77
2023/09/14 02:27:19;;;;;;;;;;;16.60;99.90;;;;;;7598892;19;20285;-76
2023/09/14 02:29:55;;;;;;;27.40;14.77;;;16.60;99.90;;;;;;7597515;19;19919;-77
2023/09/14 02:32:28;;;;;;;22.10;13.63;;;16.60;99.90;;;;;;7574502;19;20088;-77
2023/09/14 02:35:01;;;;;;;40.97;19.40;;;16.60;99.90;;;;;;7575826;19;20025;-77
2023/09/14 02:37:33;;;;;;;22.55;14.50;;;16.60;99.90;;;;;;7591711;19;20025;-77
2023/09/14 02:40:06;;;;;;;21.00;13.90;;;16.70;99.90;;;;;;7590096;19;20010;-76
2023/09/14 02:42:38;;;;;;;23.25;14.75;;;16.70;99.90;;;;;;7559226;19;20073;-76
2023/09/14 02:45:11;;;;;;;30.45;16.23;;;16.70;99.90;;;;;;7590008;19;20018;-77
2023/09/14 02:47:43;;;;;;;42.65;20.20;;;16.70;99.90;;;;;;7593122;19;21066;-77
2023/09/14 02:50:15;;;;;;;29.98;16.15;;;16.60;99.90;;;;;;7566283;19;20030;-77
2023/09/14 02:52:47;;;;;;;34.55;17.38;;;16.50;99.90;;;;;;7595963;19;20015;-77
2023/09/14 02:55:20;;;;;;;32.42;18.27;;;16.60;99.90;;;;;;7600714;19;20018;-76
2023/09/14 02:57:52;;;;;;;40.55;21.23;;;16.60;99.90;;;;;;7579519;19;20018;-76
2023/09/14 03:00:24;;;;;;;35.92;19.08;;;16.50;99.90;;;;;;7591970;19;20021;-76
2023/09/14 03:02:57;;;;;;;48.22;22.05;;;16.60;99.90;;;;;;7594513;19;20119;-77
2023/09/14 03:05:29;;;;;;;46.28;20.83;;;16.60;99.90;;;;;;7595004;19;20017;-76
2023/09/14 03:08:02;;;;;;;27.48;16.38;;;16.60;99.90;;;;;;7593937;19;20125;-78
2023/09/14 03:10:35;;;;;;;63.67;25.90;;;16.60;99.90;;;;;;7596614;19;20621;-78
2023/09/14 03:13:08;;;;;;;41.15;20.27;;;16.60;99.90;;;;;;7592997;19;20017;-78
2023/09/14 03:15:40;;;;;;;56.35;25.02;;;16.60;99.90;;;;;;7598759;19;20486;-79
2023/09/14 03:18:13;;;;;;;49.85;23.25;;;16.60;99.90;;;;;;7581081;19;20015;-78
2023/09/14 03:20:46;;;;;;;39.95;20.40;;;16.60;99.90;;;;;;7598811;19;20025;-78
2023/09/14 03:23:18;;;;;;;56.40;24.30;;;16.60;99.90;;;;;;7598511;19;20011;-79
2023/09/14 03:25:51;;;;;;;47.90;23.37;;;16.60;99.90;;;;;;7602650;19;20456;-78
2023/09/14 03:28:23;;;;;;;42.78;21.58;;;16.60;99.90;;;;;;7579533;19;20629;-78
2023/09/14 03:30:56;;;;;;;53.03;21.85;;;16.60;99.90;;;;;;7589649;19;20013;-78
2023/09/14 03:33:28;;;;;;;31.02;19.00;;;16.70;99.90;;;;;;7595941;19;20022;-78
2023/09/14 03:36:01;;;;;;;24.98;15.65;;;16.70;99.90;;;;;;7599295;19;20116;-78
2023/09/14 03:38:34;;;;;;;42.00;19.35;;;16.70;99.90;;;;;;7595718;19;20045;-78
2023/09/14 03:41:06;;;;;;;31.98;19.67;;;16.70;99.90;;;;;;7594921;19;20014;-78
2023/09/14 03:43:42;;;;;;;33.13;18.67;;;16.70;99.90;;;;;;7585271;19;20576;-79
2023/09/14 03:46:15;;;;;;;30.48;18.55;;;16.70;99.90;;;;;;7580144;19;20018;-78
2023/09/14 03:48:47;;;;;;;33.28;19.92;;;16.70;99.90;;;;;;7591958;19;20565;-78
2023/09/14 03:51:20;;;;;;;33.08;19.23;;;16.70;99.90;;;;;;7595151;19;20015;-78
2023/09/14 03:53:52;;;;;;;60.92;26.00;;;16.70;99.90;;;;;;7599384;19;20365;-78
2023/09/14 03:56:24;;;;;;;45.53;23.42;;;16.70;99.90;;;;;;7591381;19;20025;-78
2023/09/14 03:58:57;;;;;;;52.75;23.20;;;16.70;99.90;;;;;;7590134;19;20010;-77
2023/09/14 04:01:29;;;;;;;55.45;26.38;;;16.70;99.90;;;;;;7582126;19;20007;-79
2023/09/14 04:04:02;;;;;;;53.15;26.33;;;16.70;99.90;;;;;;7584044;19;20019;-78
2023/09/14 04:06:34;;;;;;;34.83;21.83;;;16.70;99.90;;;;;;7592337;19;20025;-78
2023/09/14 04:09:08;;;;;;;46.33;23.42;;;16.70;99.90;;;;;;7582156;19;20021;-78
2023/09/14 04:11:41;;;;;;;;;;;16.70;99.90;;;;;;7590008;19;20609;-79
2023/09/14 04:14:14;;;;;;;52.28;24.25;;;16.70;99.90;;;;;;7596003;19;20941;-78
2023/09/14 04:16:47;;;;;;;50.50;24.67;;;16.80;99.90;;;;;;7565924;19;20455;-78
2023/09/14 04:19:20;;;;;;;42.30;21.77;;;16.70;99.90;;;;;;7575554;19;20015;-79
2023/09/14 04:21:52;;;;;;;35.85;20.48;;;16.70;99.90;;;;;;7578481;19;20488;-78
2023/09/14 04:24:25;;;;;;;31.77;19.37;;;16.70;99.90;;;;;;7554656;19;20467;-78
2023/09/14 04:26:57;;;;;;;60.55;26.17;;;16.80;99.90;;;;;;7585234;19;20011;-78
2023/09/14 04:29:32;;;;;;;39.20;21.27;;;16.70;99.90;;;;;;7590392;19;20007;-78
2023/09/14 04:32:05;;;;;;;47.40;24.60;;;16.70;99.90;;;;;;7578519;19;20065;-79
2023/09/14 04:34:37;;;;;;;73.73;29.63;;;16.70;99.90;;;;;;7582936;19;20017;-78
2023/09/14 04:37:09;;;;;;;57.42;25.98;;;16.60;99.90;;;;;;7589220;19;20025;-79
2023/09/14 04:39:43;;;;;;;69.97;28.88;;;16.60;99.90;;;;;;7587447;19;20007;-79
2023/09/14 04:42:16;;;;;;;68.95;29.42;;;16.60;99.90;;;;;;7587405;19;21141;-79
2023/09/14 04:44:50;;;;;;;47.45;23.55;;;16.50;99.90;;;;;;7584442;19;20010;-78
2023/09/14 04:47:23;;;;;;;50.60;25.38;;;16.50;99.90;;;;;;7584866;19;20098;-78
2023/09/14 04:49:55;;;;;;;75.78;29.83;;;16.50;99.90;;;;;;7587649;19;20015;-79
2023/09/14 04:52:28;;;;;;;52.03;25.52;;;16.60;99.90;;;;;;7582412;19;20007;-76
2023/09/14 04:55:01;;;;;;;36.95;21.08;;;16.50;99.90;;;;;;7587664;19;20014;-75
2023/09/14 04:57:34;;;;;;;32.23;19.57;;;16.60;99.90;;;;;;7583582;19;22381;-77
2023/09/14 05:00:09;;;;;;;;;;;16.60;99.90;;;;;;7594176;19;20022;-79
2023/09/14 05:02:42;;;;;;;58.83;25.70;;;16.60;99.90;;;;;;7574107;19;19922;-77
2023/09/14 05:05:14;;;;;;;33.63;19.17;;;16.60;99.90;;;;;;7567484;19;20039;-77
2023/09/14 05:07:46;;;;;;;36.45;20.75;;;16.60;99.90;;;;;;7588411;19;20020;-77
2023/09/14 05:10:19;;;;;;;37.08;22.10;;;16.60;99.90;;;;;;7533504;19;20053;-78
2023/09/14 05:12:51;;;;;;;35.08;21.10;;;16.70;99.90;;;;;;7560712;19;20135;-77
2023/09/14 05:15:24;;;;;;;37.17;21.43;;;16.70;99.90;;;;;;7572300;19;20014;-76
2023/09/14 05:17:56;;;;;;;36.45;20.55;;;16.70;99.90;;;;;;7563957;19;20952;-78
2023/09/14 05:20:29;;;;;;;38.70;21.70;;;16.80;99.90;;;;;;7553741;19;20025;-78
2023/09/14 05:23:02;;;;;;;35.58;21.33;;;16.80;99.90;;;;;;7562271;19;20014;-77
2023/09/14 05:25:35;;;;;;;42.20;23.55;;;16.80;99.90;;;;;;7588139;19;20026;-78
2023/09/14 05:28:08;;;;;;;49.22;26.15;;;16.80;99.90;;;;;;7555322;19;21238;-80
2023/09/14 05:30:42;;;;;;;53.95;27.25;;;16.80;99.90;;;;;;7541319;19;20044;-78
2023/09/14 05:33:15;;;;;;;58.95;28.67;;;16.80;99.90;;;;;;7562786;19;20010;-77
2023/09/14 05:35:50;;;;;;;57.67;29.80;;;16.80;99.90;;;;;;7584661;19;20041;-77
2023/09/14 05:38:23;;;;;;;61.88;30.48;;;16.80;99.90;;;;;;7588904;19;20014;-83
2023/09/14 05:40:55;;;;;;;54.63;29.80;;;16.80;99.90;;;;;;7602613;19;20063;-81
2023/09/14 05:43:29;;;;;;;;;;;16.90;99.90;;;;;;7599862;19;20866;-81
2023/09/14 05:46:02;;;;;;;57.83;30.58;;;16.90;99.90;;;;;;7595688;19;21031;-78
2023/09/14 05:48:34;;;;;;;56.42;30.55;;;16.90;99.90;;;;;;7586398;19;20037;-78
2023/09/14 05:51:07;;;;;;;62.47;31.95;;;17.00;99.90;;;;;;7603226;19;20010;-79
2023/09/14 05:53:39;;;;;;;57.78;29.50;;;16.90;99.90;;;;;;7593189;19;20014;-83
2023/09/14 05:56:11;;;;;;;67.80;32.78;;;17.00;99.90;;;;;;7607686;19;20025;-78
2023/09/14 05:58:45;;;;;;;74.95;35.65;;;17.00;99.90;;;;;;7594905;19;20026;-81
2023/09/14 06:01:21;;;;;;;60.13;32.17;;;17.00;99.90;;;;;;7601169;19;20017;-82
2023/09/14 06:03:54;;;;;;;66.20;32.67;;;17.00;99.90;;;;;;7599438;19;20034;-84
2023/09/14 06:06:26;;;;;;;75.40;35.22;;;17.10;99.90;;;;;;7600588;19;20098;-84
2023/09/14 06:08:59;;;;;;;58.53;31.63;;;17.10;99.90;;;;;;7602622;19;20024;-80
2023/09/14 06:11:31;;;;;;;58.80;32.63;;;17.10;99.90;;;;;;7594926;19;20025;-83
2023/09/14 06:14:03;;;;;;;56.80;32.08;;;17.10;99.90;;;;;;7604762;19;20011;-83
2023/09/14 06:16:35;;;;;;;59.70;35.58;;;17.10;99.90;;;;;;7593439;19;20049;-83
2023/09/14 06:19:08;;;;;;;67.10;37.58;;;17.10;99.90;;;;;;7593188;19;20532;-80
2023/09/14 06:21:40;;;;;;;68.47;37.50;;;17.00;99.90;;;;;;7597435;19;23202;-82
2023/09/14 06:24:12;;;;;;;63.65;36.72;;;17.00;99.90;;;;;;7604355;19;20022;-82
2023/09/14 06:26:45;;;;;;;65.07;38.83;;;17.00;99.90;;;;;;7595348;19;20027;-82
2023/09/14 06:29:17;;;;;;;79.35;44.67;;;17.10;99.90;;;;;;7603623;19;20023;-79
2023/09/14 06:31:50;;;;;;;87.00;46.75;;;17.00;99.90;;;;;;7596296;19;20037;-79
2023/09/14 06:34:23;;;;;;;85.05;45.83;;;17.10;99.90;;;;;;7603123;19;20007;-84
2023/09/14 06:36:55;;;;;;;80.40;44.92;;;17.00;99.90;;;;;;7598997;19;20023;-83
2023/09/14 06:39:27;;;;;;;96.33;48.23;;;17.00;99.90;;;;;;7576219;19;20019;-80
2023/09/14 06:42:00;;;;;;;82.35;45.20;;;17.10;99.90;;;;;;7600722;19;20911;-82
2023/09/14 06:44:32;;;;;;;82.95;44.90;;;17.10;99.90;;;;;;7601812;19;20015;-84
2023/09/14 06:47:04;;;;;;;70.30;41.17;;;17.00;99.90;;;;;;7600427;19;20113;-81
2023/09/14 06:49:37;;;;;;;72.95;44.78;;;17.10;99.90;;;;;;7597528;19;20022;-83
2023/09/14 06:52:09;;;;;;;76.28;45.22;;;17.20;99.90;;;;;;7601047;19;20018;-81
2023/09/14 06:54:41;;;;;;;73.60;45.80;;;17.20;99.90;;;;;;7599929;19;20016;-81
2023/09/14 06:57:14;;;;;;;72.85;45.40;;;17.30;99.90;;;;;;7602909;19;20030;-84
2023/09/14 06:59:46;;;;;;;67.40;43.05;;;17.30;99.90;;;;;;7598255;19;20507;-79
2023/09/14 07:02:18;;;;;;;75.05;43.88;;;17.30;99.90;;;;;;7591057;19;20102;-79
2023/09/14 07:04:50;;;;;;;68.93;42.97;;;17.30;99.90;;;;;;7595050;19;20015;-86
2023/09/14 07:07:23;;;;;;;72.80;44.85;;;17.40;99.90;;;;;;7597413;19;20030;-82
2023/09/14 07:09:56;;;;;;;68.60;43.65;;;17.40;99.90;;;;;;7595962;19;20020;-82
2023/09/14 07:12:28;;;;;;;68.10;43.65;;;17.40;99.90;;;;;;7594666;19;20022;-80
2023/09/14 07:15:01;;;;;;;65.15;41.88;;;17.40;99.90;;;;;;7599494;19;20014;-79
2023/09/14 07:17:33;;;;;;;69.37;44.07;;;17.50;99.90;;;;;;7590037;19;20022;-80
2023/09/14 07:20:06;;;;;;;72.35;43.53;;;17.50;99.90;;;;;;7597775;19;20492;-81
2023/09/14 07:22:39;;;;;;;70.50;47.10;;;17.60;99.90;;;;;;7603116;19;20489;-80
2023/09/14 07:25:11;;;;;;;68.10;44.72;;;17.70;99.90;;;;;;7604528;19;20519;-82
2023/09/14 07:27:44;;;;;;;79.45;47.53;;;17.90;99.90;;;;;;7600497;19;20869;-84
2023/09/14 07:30:16;;;;;;;58.10;40.13;;;18.00;99.90;;;;;;7613866;19;20043;-79
2023/09/14 07:32:49;;;;;;;55.10;38.83;;;18.10;99.90;;;;;;7606600;19;20022;-85
2023/09/14 07:35:21;;;;;;;77.03;45.70;;;18.00;99.90;;;;;;7601268;19;20381;-80
2023/09/14 07:37:54;;;;;;;71.75;44.88;;;18.00;99.90;;;;;;7600392;19;20082;-82
2023/09/14 07:40:26;;;;;;;63.80;41.50;;;17.90;99.90;;;;;;7608418;19;20665;-80
2023/09/14 07:42:59;;;;;;;66.37;40.03;;;17.80;99.90;;;;;;7612151;19;20484;-79
2023/09/14 07:45:33;;;;;;;60.65;40.05;;;17.80;99.90;;;;;;7601557;19;20070;-81
2023/09/14 07:48:07;;;;;;;64.35;41.40;;;17.80;99.90;;;;;;7603502;19;20014;-79
2023/09/14 07:50:41;;;;;;;58.15;37.95;;;17.80;99.90;;;;;;7609440;19;20078;-82
2023/09/14 07:53:13;;;;;;;54.40;37.22;;;17.90;99.90;;;;;;7607097;19;20022;-79
2023/09/14 07:55:52;;;;;;;52.60;35.50;;;17.90;99.90;;;;;;7607985;19;21035;-80
2023/09/14 07:58:24;;;;;;;54.40;35.67;;;17.90;99.90;;;;;;7607413;19;20025;-81
2023/09/14 08:00:56;;;;;;;58.95;39.35;;;17.90;99.90;;;;;;7611048;19;20021;-80
2023/09/14 08:03:30;;;;;;;55.80;38.88;;;18.00;99.90;;;;;;7609974;19;20010;-80
2023/09/14 08:06:03;;;;;;;;;;;18.00;99.90;;;;;;7600151;19;20019;-83
2023/09/14 08:08:35;;;;;;;57.22;37.25;;;18.10;99.90;;;;;;7604414;19;19922;-79
2023/09/14 08:11:08;;;;;;;57.08;36.00;;;18.20;99.90;;;;;;7608331;19;20044;-82
2023/09/14 08:13:40;;;;;;;57.70;37.25;;;18.20;99.90;;;;;;7611399;19;20011;-81
2023/09/14 08:16:12;;;;;;;53.15;35.67;;;18.40;99.90;;;;;;7596262;19;21038;-82
2023/09/14 08:18:45;;;;;;;53.10;36.15;;;18.40;99.90;;;;;;7612549;19;20694;-82
2023/09/14 08:21:17;;;;;;;53.20;36.28;;;18.50;99.90;;;;;;7624293;19;20036;-80
2023/09/14 08:23:49;;;;;;;51.38;35.28;;;18.40;99.90;;;;;;7615383;19;20010;-80
2023/09/14 08:26:22;;;;;;;49.22;35.22;;;18.50;99.90;;;;;;7611158;19;20014;-80
2023/09/14 08:28:54;;;;;;;52.42;35.30;;;18.50;99.90;;;;;;7610228;19;20014;-80
2023/09/14 08:31:27;;;;;;;45.28;33.13;;;18.50;99.90;;;;;;7609274;19;20026;-79
2023/09/14 08:33:59;;;;;;;47.88;34.42;;;18.60;99.90;;;;;;7613072;19;20918;-81
2023/09/14 08:36:31;;;;;;;47.45;33.30;;;18.60;99.90;;;;;;7605427;19;20018;-82
2023/09/14 08:39:04;;;;;;;47.75;33.65;;;18.60;99.90;;;;;;7605694;19;20401;-80
2023/09/14 08:41:48;;;;;;;;;;;18.50;99.90;;;;;;7606687;19;20029;-80
2023/09/14 08:44:21;;;;;;;51.53;33.20;;;18.60;99.90;;;;;;7606165;19;20834;-79
2023/09/14 08:46:56;;;;;;;45.55;33.38;;;18.60;99.90;;;;;;7609082;19;20964;-80
2023/09/14 08:49:30;;;;;;;44.33;33.25;;;18.80;99.90;;;;;;7605717;19;20070;-82
2023/09/14 08:52:05;;;;;;;46.22;33.63;;;18.80;99.90;;;;;;7611281;19;20043;-79
2023/09/14 08:54:37;;;;;;;46.63;32.92;;;18.90;99.90;;;;;;7606197;19;20101;-82
2023/09/14 08:57:11;;;;;;;50.75;31.65;;;19.00;99.90;;;;;;7597576;19;20010;-79
2023/09/14 08:59:43;;;;;;;47.97;31.75;;;19.10;99.90;;;;;;7602048;19;20244;-82
2023/09/14 09:02:18;;;;;;;41.70;30.58;;;19.20;99.90;;;;;;7607133;19;20113;-80
2023/09/14 09:04:50;;;;;;;41.67;29.90;;;19.40;99.90;;;;;;7599636;19;20010;-78
2023/09/14 09:07:23;;;;;;;40.67;29.30;;;19.40;99.90;;;;;;7607518;19;20037;-76
2023/09/14 09:09:55;;;;;;;44.38;30.50;;;19.40;99.90;;;;;;7605798;19;20007;-72
2023/09/14 09:12:28;;;;;;;38.28;28.67;;;19.40;99.90;;;;;;7601104;19;20019;-73
2023/09/14 09:15:01;;;;;;;42.30;31.10;;;19.40;99.90;;;;;;7600225;19;20047;-72
2023/09/14 09:17:38;;;;;;;37.85;28.00;;;19.40;99.90;;;;;;7589633;19;20051;-73
2023/09/14 09:20:12;;;;;;;39.75;29.92;;;19.40;99.90;;;;;;7601714;19;21241;-72
2023/09/14 09:22:46;;;;;;;37.65;27.27;;;19.50;99.90;;;;;;7603808;19;20029;-72
2023/09/14 09:25:20;;;;;;;37.53;28.15;;;19.50;99.90;;;;;;7603201;19;20015;-72
2023/09/14 09:28:03;;;;;;;36.00;27.70;;;19.50;99.90;;;;;;7583627;19;20020;-72
2023/09/14 09:30:36;;;;;;;38.42;29.02;;;19.50;99.90;;;;;;7606923;19;20025;-72
2023/09/14 09:33:08;;;;;;;39.67;29.98;;;19.50;99.90;;;;;;7592141;19;20022;-72
2023/09/14 09:35:41;;;;;;;37.25;27.95;;;19.60;99.90;;;;;;7607401;19;20023;-72
2023/09/14 09:38:16;;;;;;;38.28;25.90;;;19.60;99.90;;;;;;7607598;19;20030;-72
2023/09/14 09:40:48;;;;;;;35.53;26.33;;;19.50;99.90;;;;;;7606067;19;20634;-72
2023/09/14 09:43:22;;;;;;;34.47;26.45;;;19.60;99.90;;;;;;7608214;19;20015;-72
2023/09/14 09:45:55;;;;;;;32.63;25.45;;;19.70;99.90;;;;;;7592419;19;20019;-72
2023/09/14 09:48:28;;;;;;;29.93;22.83;;;19.80;99.90;;;;;;7609347;19;20370;-72
2023/09/14 09:51:01;;;;;;;31.73;23.10;;;19.90;99.90;;;;;;7601304;19;20917;-72
2023/09/14 09:53:33;;;;;;;28.48;21.67;;;20.00;99.90;;;;;;7607444;19;20022;-72
2023/09/14 09:56:17;;;;;;;28.48;22.10;;;20.20;99.90;;;;;;7596033;19;20010;-73
2023/09/14 09:58:49;;;;;;;31.60;22.10;;;20.30;99.90;;;;;;7597068;19;20015;-72
2023/09/14 10:01:22;;;;;;;32.67;20.85;;;20.40;99.90;;;;;;7589458;19;20022;-72
2023/09/14 10:03:56;;;;;;;30.08;22.35;;;20.60;99.90;;;;;;7603724;19;20093;-72
2023/09/14 10:06:28;;;;;;;;;;;20.80;99.90;;;;;;7608130;19;20601;-72
2023/09/14 10:09:06;;;;;;;29.63;20.75;;;20.90;99.90;;;;;;7605359;19;19934;-72
2023/09/14 10:11:39;;;;;;;25.75;18.55;;;21.00;99.90;;;;;;7602525;19;20086;-71
2023/09/14 10:14:15;;;;;;;;;;;21.10;99.90;;;;;;7605336;19;20096;-70
2023/09/14 10:16:49;;;;;;;29.15;21.70;;;21.20;99.90;;;;;;7601611;19;20564;-70
2023/09/14 10:19:23;;;;;;;23.38;18.38;;;21.10;99.90;;;;;;7603798;19;20017;-71
2023/09/14 10:21:57;;;;;;;25.38;20.33;;;21.00;99.90;;;;;;7593495;19;20018;-71
2023/09/14 10:24:29;;;;;;;27.77;21.10;;;20.90;99.90;;;;;;7593655;19;20011;-71
2023/09/14 10:27:02;;;;;;;36.97;24.13;;;20.80;99.90;;;;;;7600891;19;20014;-71
2023/09/14 10:29:39;;;;;;;29.30;22.30;;;20.60;99.90;;;;;;7599677;19;20026;-71
2023/09/14 10:32:14;;;;;;;34.67;22.10;;;20.60;99.90;;;;;;7585787;19;20068;-73
2023/09/14 10:34:49;;;;;;;26.52;21.50;;;20.60;99.90;;;;;;7582135;19;20014;-71
2023/09/14 10:37:42;;;;;;;32.45;22.63;;;20.60;99.90;;;;;;7588121;19;20101;-70
2023/09/14 10:40:17;;;;;;;34.40;24.02;;;20.60;99.90;;;;;;7588475;19;20533;-71
2023/09/14 10:42:50;;;;;;;34.13;24.05;;;20.70;99.90;;;;;;7598903;19;20036;-71
2023/09/14 10:45:25;;;;;;;36.35;24.13;;;20.70;99.90;;;;;;7583515;19;20401;-71
2023/09/14 10:47:57;;;;;;;36.05;24.98;;;20.60;99.90;;;;;;7598204;19;20015;-71
2023/09/14 10:50:31;;;;;;;31.77;24.73;;;20.60;99.90;;;;;;7605450;19;20022;-72
2023/09/14 10:53:04;;;;;;;33.95;24.60;;;20.60;99.90;;;;;;7597605;19;20014;-72
2023/09/14 10:55:38;;;;;;;36.35;26.25;;;20.60;99.90;;;;;;7600807;19;20019;-71
2023/09/14 10:58:12;;;;;;;34.72;26.67;;;20.60;99.90;;;;;;7587113;19;20025;-71
2023/09/14 11:00:45;;;;;;;40.80;27.02;;;20.40;99.90;;;;;;7583271;19;20035;-71
2023/09/14 11:04:06;;;;;;;34.58;25.00;;;20.50;99.90;;;;;;7604352;19;20019;-71
2023/09/14 11:06:54;;;;;;;31.65;23.58;;;20.90;99.90;;;;;;7617240;19;20356;-71
2023/09/14 11:09:29;;;;;;;35.67;22.67;;;21.30;99.90;;;;;;7610572;19;20025;-71
2023/09/14 11:12:18;;;;;;;;;;;21.40;99.90;;;;;;7611324;19;20023;-70
2023/09/14 11:15:15;;;;;;;31.13;23.10;;;21.50;99.90;;;;;;7603447;19;19969;-71
2023/09/14 11:17:51;;;;;;;33.00;23.27;;;21.50;99.90;;;;;;7605635;19;20036;-72
2023/09/14 11:20:26;;;;;;;32.03;22.33;;;21.50;99.90;;;;;;7599132;19;20015;-70
2023/09/14 11:23:04;;;;;;;34.53;23.88;;;21.60;99.90;;;;;;7604182;19;20047;-71
2023/09/14 11:25:41;;;;;;;31.00;22.63;;;21.60;99.90;;;;;;7587256;19;20029;-72
2023/09/14 11:28:35;;;;;;;27.75;19.67;;;22.00;99.90;;;;;;7587331;19;20023;-72
2023/09/14 11:31:09;;;;;;;30.27;21.27;;;22.60;99.90;;;;;;7584956;19;20390;-72
2023/09/14 11:33:43;;;;;;;25.27;19.33;;;23.00;99.90;;;;;;7592646;19;21321;-72
2023/09/14 11:36:17;;;;;;;25.52;19.20;;;23.50;99.90;;;;;;7587382;19;20630;-72
2023/09/14 11:38:53;;;;;;;26.45;17.25;;;23.90;99.90;;;;;;7578634;19;20011;-72
2023/09/14 11:41:49;;;;;;;24.98;17.65;;;24.30;99.90;;;;;;7560412;19;20018;-73
2023/09/14 11:44:29;;;;;;;22.23;16.05;;;24.40;99.90;;;;;;7556752;19;20013;-69
2023/09/14 11:47:18;;;;;;;24.35;13.38;;;24.50;99.90;;;;;;7585532;19;20320;-73
2023/09/14 11:49:53;;;;;;;15.73;12.65;;;24.30;99.90;;;;;;7590023;19;20025;-73
2023/09/14 11:52:30;;;;;;;19.55;14.40;;;24.80;99.90;;;;;;7583549;19;20022;-73
2023/09/14 11:55:03;;;;;;;17.38;11.60;;;25.20;99.90;;;;;;7567044;19;20082;-71
2023/09/14 11:57:37;;;;;;;19.70;13.35;;;25.40;99.90;;;;;;7582429;19;20020;-71
2023/09/14 12:00:11;;;;;;;13.82;10.82;;;25.50;99.90;;;;;;7593276;19;20021;-71
2023/09/14 12:02:44;;;;;;;15.90;12.07;;;25.70;99.90;;;;;;7598427;19;20022;-73
2023/09/14 12:05:16;;;;;;;18.52;11.57;;;25.90;99.90;;;;;;7590588;19;20321;-73
2023/09/14 12:07:49;;;;;;;14.15;9.30;;;25.80;99.80;;;;;;7593392;19;20026;-73
2023/09/14 12:10:23;;;;;;;14.15;10.75;;;25.90;98.80;;;;;;7598880;19;20041;-73
2023/09/14 12:12:56;;;;;;;12.30;9.68;;;25.90;98.30;;;;;;7596643;19;20518;-72
2023/09/14 12:15:30;;;;;;;14.88;9.75;;;26.10;99.20;;;;;;7584053;19;20511;-72
2023/09/14 12:18:03;;;;;;;13.23;10.05;;;26.10;98.70;;;;;;7581204;19;20078;-73
2023/09/14 12:20:39;;;;;;;12.73;8.82;;;26.60;97.60;;;;;;7589238;19;20981;-72
2023/09/14 12:23:14;;;;;;;14.77;9.48;;;27.20;98.60;;;;;;7582710;19;20022;-73
2023/09/14 12:25:46;;;;;;;13.75;8.80;;;27.20;97.10;;;;;;7584845;19;20513;-72
2023/09/14 12:28:18;;;;;;;13.68;9.85;;;26.90;97.50;;;;;;7578178;19;20014;-72
2023/09/14 12:30:51;;;;;;;15.32;9.85;;;26.30;97.30;;;;;;7584246;19;20021;-72
2023/09/14 12:33:23;;;;;;;11.90;9.50;;;25.50;97.90;;;;;;7584057;19;20027;-71
2023/09/14 12:35:57;;;;;;;11.07;9.27;;;25.00;99.60;;;;;;7585745;19;20483;-72
2023/09/14 12:38:30;;;;;;;;;;;24.50;99.90;;;;;;7595730;19;20592;-71
2023/09/14 12:41:17;;;;;;;13.40;9.27;;;24.30;99.90;;;;;;7584937;19;19957;-70
2023/09/14 12:43:50;;;;;;;12.05;9.35;;;24.10;99.90;;;;;;7561194;19;20033;-72
2023/09/14 12:46:23;;;;;;;10.48;8.05;;;24.00;99.90;;;;;;7592636;19;20006;-71
2023/09/14 12:49:00;;;;;;;10.23;7.75;;;24.90;99.90;;;;;;7589603;19;20010;-70
2023/09/14 12:51:33;;;;;;;12.90;8.88;;;26.00;98.90;;;;;;7593611;19;20015;-71
2023/09/14 12:54:05;;;;;;;13.33;7.97;;;26.30;96.50;;;;;;7583063;19;20019;-72
2023/09/14 12:56:41;;;;;;;13.03;8.77;;;26.30;97.50;;;;;;7587096;19;20295;-71
2023/09/14 12:59:13;;;;;;;13.43;8.52;;;26.10;98.60;;;;;;7594107;19;20271;-71
2023/09/14 13:01:45;;;;;;;10.10;7.18;;;26.10;97.80;;;;;;7591250;19;20633;-70
2023/09/14 13:04:18;;;;;;;10.07;7.57;;;25.90;97.00;;;;;;7591983;19;20007;-71